Webcam more information Webcam


altri nostri siti meteo:

RISCHIO INCENDIRischio incendi

Pomeziameteo 1Sito sul meteo

Pomeziameteo DashboardSito sul meteo

Caput FrigorisSito sul meteo

BarcellonameteoSito sul meteo

MeteoipassiSito sul meteo

TortoretometeolidoSito sul meteo

CastelnuovovomanometeoSito sul meteo

MeteogonzagaSito sul meteo

MeteonetworkInvio dai a Meteonetwork



Non è richiesta alcuna attenzione speciale.    Non sono presenti avvisi meteorologici di particolare rilevanza

Report METAR

   
LIRV - Viterbo (it-Mil), Italy
Distanza dalla stazione: W 4 km
Dati ricevuti: 23-01-2020 19:55
Sereno  
Sereno  
   Vento: NE 5.6 km/h
Vento: NE 5.6 km/h
Temperatura: 7°C
Temperatura Vento: 6°C
P.to Rugiada: 4°C
Umidita: 81%
Barometro: 1027 hPa
Visibilita: oltre 10 km
dettagli cloud: Sereno
LIRV 231855Z 04003KT CAVOK 07/04 Q1027
LIQN - Rieti, Italy
Distanza dalla stazione: E 59 km
Dati ricevuti: 23-01-2020 17:50
DATI Obsoleti
Sereno  
Sereno  
   Vento: Variabile 1.9 km/h
Vento: Variabile 1.9 km/h
Temperatura: 8°C
P.to Rugiada: 3°C
Umidita: 71%
Barometro: 1026 hPa
Visibilita: oltre 10 km
dettagli cloud: Sereno
LIQN 231650Z VRB01KT CAVOK 08/03 Q1026
LIRU - Rome/Urbe (it-Af, Italy
Distanza dalla stazione: S 61 km
Dati ricevuti: 23-01-2020 16:50
DATI Obsoleti
Sereno  
Sereno  
   Vento: calma
Vento: calma
Temperatura: 14°C
P.to Rugiada: 6°C
Umidita: 59%
Barometro: 1027 hPa
Visibilita: oltre 10 km
dettagli cloud: Sereno
LIRU 231550Z 00000KT CAVOK 14/06 Q1027
LIRG - Guidonia (it-Afb, Italy
Distanza dalla stazione: SE 68 km
Dati ricevuti: 23-01-2020 18:55
DATI Obsoleti
Sereno  
Sereno  
   Vento: NE 13 km/h
Vento: NE 13 km/h
Temperatura: 9°C
Temperatura Vento: 7°C
P.to Rugiada: 6°C
Umidita: 82%
Barometro: 1027 hPa
Visibilita: oltre 10 km
dettagli cloud: Sereno
LIRG 231755Z 03007KT CAVOK 09/06 Q1027
LIRK - Terminillo Mount, Italy
Distanza dalla stazione: E 70 km
Dati ricevuti: 28-12-2019 23:55
DATI Obsoleti
  
  
   Vento: Variabile 50 km/h<br />Gust to 50 km/h
Vento: Variabile 50 km/h
Gust to 50 km/h
Temperatura: -8°C
Temperatura Vento: -19°C
P.to Rugiada: -14°C
Umidita: 62%
Barometro: 1021 hPa
LIRK 282255Z AUTO VRB27G42KT //// M08/M14 Q1021
 

Script sviluppato da  Saratoga-weather.org Adattato per il modello da  Weerstation Leuven

Strumentazione usata:

Stazione meteo
Davis VP2

Programma gestore dati meteo
WVIEW

Server per i dati meteo
WDS-5

Davis VP2

WVIEW

WDS-5